createdAt,value
2022-10-23T00:00:48.409Z,9.11
2022-10-23T00:03:51.736Z,8.98
2022-10-23T00:06:53.671Z,8.93
2022-10-23T00:09:55.930Z,8.92
2022-10-23T00:12:57.856Z,8.84
2022-10-23T00:16:00.171Z,8.81
2022-10-23T00:19:02.308Z,8.89
2022-10-23T00:22:04.527Z,8.96
2022-10-23T00:25:07.119Z,8.90
2022-10-23T00:28:09.390Z,8.98
2022-10-23T00:31:11.491Z,8.91
2022-10-23T00:34:15.553Z,8.89
2022-10-23T00:37:17.559Z,8.87
2022-10-23T00:40:20.329Z,8.90
2022-10-23T00:43:24.095Z,8.93
2022-10-23T00:46:26.556Z,8.92
2022-10-23T00:49:28.555Z,8.94
2022-10-23T00:52:31.078Z,9.00
2022-10-23T00:55:33.367Z,9.14
2022-10-23T00:58:35.663Z,9.24
2022-10-23T01:01:38.369Z,9.02
2022-10-23T01:04:42.316Z,9.03
2022-10-23T01:07:56.650Z,8.85
2022-10-23T01:11:08.199Z,8.82
2022-10-23T01:14:12.836Z,8.73
2022-10-23T01:17:34.639Z,8.71
2022-10-23T01:20:42.459Z,8.66
2022-10-23T01:23:44.791Z,8.61
2022-10-23T01:26:59.697Z,8.60
2022-10-23T01:30:06.092Z,8.53
2022-10-23T01:33:17.607Z,8.54
2022-10-23T01:36:23.860Z,8.51
2022-10-23T01:39:32.660Z,8.44
2022-10-23T01:42:39.146Z,8.42
2022-10-23T01:45:43.798Z,8.34
2022-10-23T01:48:51.318Z,8.45
2022-10-23T01:51:55.137Z,8.33
2022-10-23T01:54:59.550Z,8.23
2022-10-23T01:58:02.641Z,8.20
2022-10-23T02:01:11.596Z,8.19
2022-10-23T02:04:27.277Z,8.23
2022-10-23T02:07:30.028Z,8.21
2022-10-23T02:10:36.362Z,8.20
2022-10-23T02:13:42.713Z,8.22
2022-10-23T02:16:49.473Z,8.22
2022-10-23T02:19:58.147Z,8.20
2022-10-23T02:23:03.562Z,8.20
2022-10-23T02:26:08.526Z,8.17
2022-10-23T02:29:14.599Z,8.15
2022-10-23T02:32:19.600Z,8.08
2022-10-23T02:35:23.930Z,8.07
2022-10-23T02:38:35.190Z,8.02
2022-10-23T02:41:46.647Z,8.04
2022-10-23T02:45:08.962Z,8.00
2022-10-23T02:48:20.683Z,7.94
2022-10-23T02:51:28.484Z,8.03
2022-10-23T02:54:33.890Z,8.00
2022-10-23T02:57:40.135Z,8.01
2022-10-23T03:00:49.244Z,8.01
2022-10-23T03:03:53.652Z,7.96
2022-10-23T03:06:56.380Z,8.00
2022-10-23T03:09:58.327Z,8.00
2022-10-23T03:13:00.754Z,8.01
2022-10-23T03:16:05.313Z,8.03
2022-10-23T03:19:09.194Z,8.06
2022-10-23T03:22:11.321Z,8.10
2022-10-23T03:25:14.002Z,8.17
2022-10-23T03:28:15.998Z,8.24
2022-10-23T03:31:18.513Z,8.20
2022-10-23T03:34:20.799Z,8.27
2022-10-23T03:37:23.177Z,8.37
2022-10-23T03:40:25.442Z,8.42
2022-10-23T03:43:27.715Z,8.45
2022-10-23T03:46:29.874Z,8.45
2022-10-23T03:49:32.166Z,8.41
2022-10-23T03:52:37.748Z,8.37
2022-10-23T03:55:39.991Z,8.37
2022-10-23T03:58:41.960Z,8.41
2022-10-23T04:01:44.387Z,8.36
2022-10-23T04:04:46.907Z,8.39
2022-10-23T04:07:48.833Z,8.27
2022-10-23T04:10:51.200Z,8.24
2022-10-23T04:13:54.434Z,8.24
2022-10-23T04:16:57.883Z,8.20
2022-10-23T04:19:59.933Z,8.12
2022-10-23T04:23:02.921Z,8.16
2022-10-23T04:26:04.906Z,8.12
2022-10-23T04:29:07.619Z,8.13
2022-10-23T04:32:09.919Z,8.09
2022-10-23T04:35:12.332Z,8.08
2022-10-23T04:38:14.320Z,8.03
2022-10-23T04:41:16.797Z,8.02
2022-10-23T04:44:20.772Z,7.92
2022-10-23T04:47:23.066Z,7.84
2022-10-23T04:50:28.507Z,7.77
2022-10-23T04:53:40.667Z,7.74
2022-10-23T04:56:42.968Z,7.75
2022-10-23T04:59:46.349Z,7.78
2022-10-23T05:02:48.473Z,7.71
2022-10-23T05:05:55.591Z,7.62
2022-10-23T05:08:58.450Z,7.68
2022-10-23T05:12:03.169Z,7.60
2022-10-23T05:15:05.531Z,7.53
2022-10-23T05:18:13.117Z,7.61
2022-10-23T05:21:20.841Z,7.60
2022-10-23T05:24:24.738Z,7.59
2022-10-23T05:27:28.946Z,7.64
2022-10-23T05:30:33.111Z,7.72
2022-10-23T05:33:37.253Z,7.75
2022-10-23T05:36:40.002Z,7.82
2022-10-23T05:39:42.634Z,7.87
2022-10-23T05:42:45.615Z,7.86
2022-10-23T05:45:48.621Z,7.98
2022-10-23T05:48:52.113Z,8.04
2022-10-23T05:51:55.046Z,8.10
2022-10-23T05:54:57.627Z,8.26
2022-10-23T05:58:01.690Z,9.81
2022-10-23T06:01:07.132Z,10.07
2022-10-23T06:04:11.197Z,9.38
2022-10-23T06:07:15.429Z,9.06
2022-10-23T06:10:18.227Z,9.16
2022-10-23T06:13:20.495Z,9.14
2022-10-23T06:16:27.012Z,9.06
2022-10-23T06:19:29.163Z,9.14
2022-10-23T06:22:31.703Z,9.17
2022-10-23T06:25:37.046Z,9.10
2022-10-23T06:28:40.066Z,9.06
2022-10-23T06:31:42.045Z,9.28
2022-10-23T06:34:44.377Z,9.39
2022-10-23T06:37:46.529Z,9.51
2022-10-23T06:40:56.758Z,9.57
2022-10-23T06:43:59.202Z,9.64
2022-10-23T06:47:02.231Z,9.74
2022-10-23T06:50:11.667Z,9.79
2022-10-23T06:53:18.049Z,9.90
2022-10-23T06:56:20.596Z,9.81
2022-10-23T06:59:23.134Z,9.95
2022-10-23T07:02:26.916Z,9.98
2022-10-23T07:05:29.623Z,9.96
2022-10-23T07:08:32.235Z,9.98
2022-10-23T07:11:38.738Z,9.94
2022-10-23T07:14:40.962Z,9.92
2022-10-23T07:17:43.500Z,9.84
2022-10-23T07:20:49.385Z,10.03
2022-10-23T07:23:52.109Z,9.95
2022-10-23T07:26:54.158Z,9.89
2022-10-23T07:29:58.581Z,10.06
2022-10-23T07:33:03.892Z,10.23
2022-10-23T07:36:10.907Z,10.48
2022-10-23T07:39:13.018Z,10.53
2022-10-23T07:42:16.389Z,10.71
2022-10-23T07:45:18.475Z,10.77
2022-10-23T07:48:21.971Z,10.77
2022-10-23T07:51:24.578Z,10.89
2022-10-23T07:54:31.990Z,10.83
2022-10-23T07:57:37.850Z,10.91
2022-10-23T08:00:43.062Z,10.85
2022-10-23T08:03:46.476Z,10.82
2022-10-23T08:06:48.685Z,10.69
2022-10-23T08:09:51.354Z,10.64
2022-10-23T08:12:53.294Z,10.84
2022-10-23T08:15:56.702Z,10.98
2022-10-23T08:19:01.197Z,11.09
2022-10-23T08:22:04.511Z,11.04
2022-10-23T08:25:07.675Z,11.00
2022-10-23T08:28:11.597Z,11.15
2022-10-23T08:31:15.525Z,11.30
2022-10-23T08:34:20.842Z,11.51
2022-10-23T08:37:23.800Z,11.57
2022-10-23T08:40:26.454Z,11.59
2022-10-23T08:43:50.360Z,11.79
2022-10-23T08:47:00.316Z,11.90
2022-10-23T08:50:22.555Z,11.84
2022-10-23T08:53:29.465Z,12.02
2022-10-23T08:56:39.859Z,12.20
2022-10-23T08:59:50.167Z,12.16
2022-10-23T09:02:53.460Z,12.15
2022-10-23T09:06:01.857Z,12.29
2022-10-23T09:09:03.839Z,12.34
2022-10-23T09:12:12.705Z,12.62
2022-10-23T09:15:23.243Z,12.77
2022-10-23T09:18:25.641Z,12.79
2022-10-23T09:21:28.323Z,12.85
2022-10-23T09:24:32.846Z,13.11
2022-10-23T09:27:34.878Z,13.41
2022-10-23T09:30:38.643Z,13.59
2022-10-23T09:33:40.903Z,14.07
2022-10-23T09:36:49.028Z,14.39
2022-10-23T09:40:01.716Z,14.37
2022-10-23T09:43:12.602Z,14.63
2022-10-23T09:46:14.956Z,14.97
2022-10-23T09:49:22.150Z,15.24
2022-10-23T09:52:25.943Z,15.49
2022-10-23T09:55:28.494Z,15.50
2022-10-23T09:58:32.752Z,15.34
2022-10-23T10:01:37.501Z,15.33
2022-10-23T10:04:41.839Z,14.79
2022-10-23T10:07:53.700Z,14.68
2022-10-23T10:11:10.615Z,15.03
2022-10-23T10:14:25.408Z,15.01
2022-10-23T10:17:27.842Z,15.34
2022-10-23T10:20:40.115Z,15.38
2022-10-23T10:24:11.611Z,15.79
2022-10-23T10:27:32.097Z,15.75
2022-10-23T10:30:41.404Z,15.78
2022-10-23T10:34:02.317Z,15.98
2022-10-23T10:37:17.648Z,15.66
2022-10-23T10:40:29.644Z,15.78
2022-10-23T10:43:35.080Z,15.52
2022-10-23T10:46:56.074Z,15.97
2022-10-23T10:50:14.765Z,15.74
2022-10-23T10:53:28.167Z,16.45
2022-10-23T10:56:33.368Z,17.29
2022-10-23T10:59:38.219Z,18.45
2022-10-23T11:02:48.509Z,19.64
2022-10-23T11:05:51.973Z,19.73
2022-10-23T11:09:15.580Z,21.65
2022-10-23T11:12:18.455Z,22.50
2022-10-23T11:15:42.107Z,23.65
2022-10-23T11:18:46.680Z,24.08
2022-10-23T11:21:56.471Z,24.09
2022-10-23T11:25:06.396Z,21.46
2022-10-23T11:28:11.798Z,22.52
2022-10-23T11:31:24.583Z,22.50
2022-10-23T11:34:36.237Z,23.69
2022-10-23T11:37:38.259Z,22.52
2022-10-23T11:44:01.544Z,22.08
2022-10-23T11:47:05.746Z,22.39
2022-10-23T11:50:07.842Z,24.07
2022-10-23T11:53:29.147Z,24.31
2022-10-23T11:56:31.278Z,23.22
2022-10-23T11:59:49.957Z,21.60
2022-10-23T12:02:59.011Z,21.36
2022-10-23T12:06:04.843Z,20.85
2022-10-23T12:09:22.391Z,19.87
2022-10-23T12:12:34.041Z,18.24
2022-10-23T12:15:36.258Z,18.30
2022-10-23T12:18:53.030Z,17.83
2022-10-23T12:21:58.683Z,17.72
2022-10-23T12:25:04.353Z,17.51
2022-10-23T12:28:22.361Z,17.38
2022-10-23T12:31:34.387Z,17.16
2022-10-23T12:34:43.891Z,16.88
2022-10-23T12:37:54.612Z,16.93
2022-10-23T12:41:10.209Z,16.55
2022-10-23T12:44:12.748Z,16.73
2022-10-23T12:47:18.645Z,16.20
2022-10-23T12:50:26.079Z,15.80
2022-10-23T12:53:28.370Z,15.74
2022-10-23T12:56:35.797Z,15.75
2022-10-23T12:59:39.098Z,16.39
2022-10-23T13:02:41.600Z,16.29
2022-10-23T13:05:44.508Z,16.43
2022-10-23T13:08:48.152Z,16.53
2022-10-23T13:11:52.378Z,17.36
2022-10-23T13:14:57.785Z,17.20
2022-10-23T13:18:02.029Z,17.07
2022-10-23T13:21:04.755Z,16.91
2022-10-23T13:24:19.015Z,16.76
2022-10-23T13:27:25.654Z,16.48
2022-10-23T13:30:32.393Z,16.19
2022-10-23T13:33:39.609Z,16.26
2022-10-23T13:36:53.272Z,16.09
2022-10-23T13:40:00.809Z,15.96
2022-10-23T13:43:02.863Z,16.05
2022-10-23T13:46:05.424Z,16.53
2022-10-23T13:49:07.604Z,16.70
2022-10-23T13:52:12.730Z,16.64
2022-10-23T13:55:24.535Z,16.63
2022-10-23T13:58:27.122Z,16.45
2022-10-23T14:01:30.780Z,16.38
2022-10-23T14:04:33.627Z,16.38
2022-10-23T14:07:35.712Z,16.28
2022-10-23T14:10:38.580Z,16.22
2022-10-23T14:13:40.875Z,16.01
2022-10-23T14:16:43.594Z,16.00
2022-10-23T14:19:45.962Z,16.04
2022-10-23T14:22:48.232Z,16.06
2022-10-23T14:25:50.335Z,16.03
2022-10-23T14:28:53.743Z,16.01
2022-10-23T14:31:55.711Z,15.89
2022-10-23T14:34:58.159Z,15.93
2022-10-23T14:38:00.121Z,15.86
2022-10-23T14:41:02.454Z,15.83
2022-10-23T14:44:04.762Z,15.83
2022-10-23T14:47:07.171Z,15.85
2022-10-23T14:50:11.044Z,15.64
2022-10-23T14:53:13.903Z,15.60
2022-10-23T14:56:16.167Z,15.53
2022-10-23T14:59:18.403Z,15.45
2022-10-23T15:02:20.409Z,15.49
2022-10-23T15:05:22.842Z,15.41
2022-10-23T15:08:24.887Z,15.34
2022-10-23T15:11:28.729Z,15.43
2022-10-23T15:14:30.857Z,15.44
2022-10-23T15:17:34.086Z,15.42
2022-10-23T15:20:36.192Z,15.43
2022-10-23T15:23:39.842Z,15.36
2022-10-23T15:26:43.801Z,15.31
2022-10-23T15:29:46.993Z,15.35
2022-10-23T15:32:49.008Z,15.42
2022-10-23T15:35:52.073Z,15.33
2022-10-23T15:38:54.151Z,15.33
2022-10-23T15:41:56.566Z,15.40
2022-10-23T15:44:58.643Z,15.38
2022-10-23T15:48:01.745Z,15.20
2022-10-23T15:51:03.885Z,15.15
2022-10-23T15:54:07.005Z,15.17
2022-10-23T15:57:09.947Z,15.11
2022-10-23T16:00:15.893Z,15.05
2022-10-23T16:03:20.791Z,15.00
2022-10-23T16:06:23.117Z,15.11
2022-10-23T16:09:25.580Z,14.98
2022-10-23T16:12:28.078Z,15.06
2022-10-23T16:15:30.551Z,14.97
2022-10-23T16:18:32.581Z,15.00
2022-10-23T16:21:36.158Z,15.02
2022-10-23T16:24:38.402Z,15.01
2022-10-23T16:27:40.873Z,15.11
2022-10-23T16:30:43.790Z,15.29
2022-10-23T16:33:46.217Z,15.21
2022-10-23T16:36:49.404Z,15.33
2022-10-23T16:39:52.507Z,15.43
2022-10-23T16:42:57.037Z,15.43
2022-10-23T16:46:29.331Z,15.45
2022-10-23T16:49:32.214Z,15.49
2022-10-23T16:52:34.992Z,15.57
2022-10-23T16:55:39.950Z,15.55
2022-10-23T16:58:42.618Z,15.58
2022-10-23T17:01:44.725Z,15.60
2022-10-23T17:04:47.937Z,15.65
2022-10-23T17:07:50.284Z,15.52
2022-10-23T17:11:03.212Z,15.56
2022-10-23T17:14:11.275Z,15.50
2022-10-23T17:17:13.717Z,15.51
2022-10-23T17:20:15.701Z,15.54
2022-10-23T17:23:18.005Z,15.48
2022-10-23T17:26:21.044Z,15.46
2022-10-23T17:29:23.447Z,15.38
2022-10-23T17:32:25.520Z,15.33
2022-10-23T17:35:28.052Z,15.38
2022-10-23T17:38:30.071Z,15.36
2022-10-23T17:41:32.458Z,15.36
2022-10-23T17:44:34.654Z,15.32
2022-10-23T17:47:37.104Z,15.27
2022-10-23T17:50:39.485Z,15.35
2022-10-23T17:53:42.853Z,15.27
2022-10-23T17:56:44.941Z,15.23
2022-10-23T17:59:47.310Z,15.20
2022-10-23T18:02:49.392Z,15.23
2022-10-23T18:05:51.773Z,15.24
2022-10-23T18:08:54.010Z,15.26
2022-10-23T18:11:56.620Z,15.26
2022-10-23T18:14:58.612Z,15.27
2022-10-23T18:18:01.095Z,15.19
2022-10-23T18:21:03.710Z,15.16
2022-10-23T18:24:06.226Z,15.22
2022-10-23T18:27:08.349Z,15.19
2022-10-23T18:30:11.043Z,15.12
2022-10-23T18:33:13.663Z,15.16
2022-10-23T18:36:18.225Z,15.10
2022-10-23T18:39:22.664Z,15.06
2022-10-23T18:42:25.347Z,15.00
2022-10-23T18:45:27.381Z,15.01
2022-10-23T18:48:30.958Z,14.97
2022-10-23T18:51:34.310Z,15.08
2022-10-23T18:54:36.977Z,15.00
2022-10-23T18:57:39.836Z,15.00
2022-10-23T19:00:42.677Z,15.01
2022-10-23T19:03:45.081Z,15.01
2022-10-23T19:06:48.372Z,15.03
2022-10-23T19:09:51.000Z,15.12
2022-10-23T19:12:53.512Z,15.10
2022-10-23T19:15:56.230Z,15.02
2022-10-23T19:19:00.605Z,15.01
2022-10-23T19:22:04.319Z,15.04
2022-10-23T19:25:33.227Z,14.98
2022-10-23T19:28:40.131Z,14.90
2022-10-23T19:31:48.624Z,14.85
2022-10-23T19:34:50.775Z,14.81
2022-10-23T19:37:53.393Z,14.72
2022-10-23T19:40:55.576Z,14.78
2022-10-23T19:43:58.169Z,14.79
2022-10-23T19:47:00.984Z,14.73
2022-10-23T19:50:04.851Z,14.66
2022-10-23T19:53:06.909Z,14.68
2022-10-23T19:56:10.529Z,14.65
2022-10-23T19:59:15.762Z,14.79
2022-10-23T20:02:19.593Z,14.64
2022-10-23T20:05:22.163Z,14.54
2022-10-23T20:08:24.213Z,14.57
2022-10-23T20:11:29.085Z,14.64
2022-10-23T20:14:31.500Z,14.62
2022-10-23T20:17:34.008Z,14.62
2022-10-23T20:20:39.719Z,14.64
2022-10-23T20:23:42.579Z,14.56
2022-10-23T20:26:45.835Z,14.50
2022-10-23T20:29:48.689Z,14.44
2022-10-23T20:32:51.107Z,14.41
2022-10-23T20:35:53.609Z,14.38
2022-10-23T20:38:56.334Z,14.36
2022-10-23T20:42:00.354Z,14.31
2022-10-23T20:45:03.581Z,14.31
2022-10-23T20:48:06.257Z,14.54
2022-10-23T20:51:10.266Z,14.65
2022-10-23T20:54:13.160Z,14.70
2022-10-23T20:57:17.946Z,14.60
2022-10-23T21:00:23.920Z,14.74
2022-10-23T21:03:26.380Z,14.90
2022-10-23T21:06:41.034Z,14.69
2022-10-23T21:09:53.055Z,14.59
2022-10-23T21:12:55.733Z,14.55
2022-10-23T21:15:57.882Z,14.51
2022-10-23T21:19:00.969Z,14.49
2022-10-23T21:22:02.995Z,14.50
2022-10-23T21:25:05.746Z,14.34
2022-10-23T21:28:08.123Z,14.22
2022-10-23T21:31:13.072Z,14.36
2022-10-23T21:34:15.112Z,14.35
2022-10-23T21:37:17.538Z,14.39
2022-10-23T21:40:19.531Z,14.32
2022-10-23T21:43:21.840Z,14.41
2022-10-23T21:46:24.705Z,14.44
2022-10-23T21:49:27.202Z,14.38
2022-10-23T21:52:30.244Z,14.36
2022-10-23T21:55:33.196Z,14.31
2022-10-23T21:58:36.129Z,14.36
2022-10-23T22:01:39.617Z,14.46
2022-10-23T22:04:42.107Z,14.37
2022-10-23T22:07:46.448Z,14.38
2022-10-23T22:10:49.488Z,14.34
2022-10-23T22:13:51.763Z,14.36
2022-10-23T22:16:54.746Z,14.30
2022-10-23T22:19:56.848Z,14.34
2022-10-23T22:22:59.284Z,14.45
2022-10-23T22:26:05.313Z,14.73
2022-10-23T22:29:09.490Z,14.52
2022-10-23T22:32:11.559Z,14.60
2022-10-23T22:35:14.087Z,14.50
2022-10-23T22:38:16.464Z,14.73
2022-10-23T22:41:19.417Z,14.60
2022-10-23T22:44:21.506Z,14.61
2022-10-23T22:47:23.883Z,14.53
2022-10-23T22:50:25.926Z,14.54
2022-10-23T22:53:28.898Z,14.43
2022-10-23T22:56:31.008Z,14.44
2022-10-23T22:59:33.562Z,14.35
2022-10-23T23:02:36.514Z,14.11
2022-10-23T23:05:43.521Z,14.17
2022-10-23T23:08:46.531Z,14.17
2022-10-23T23:11:52.811Z,13.91
2022-10-23T23:14:55.072Z,13.80
2022-10-23T23:17:57.953Z,14.04
2022-10-23T23:21:01.031Z,14.09
2022-10-23T23:24:03.608Z,14.04
2022-10-23T23:27:05.608Z,14.01
2022-10-23T23:30:09.061Z,13.86
2022-10-23T23:33:11.888Z,13.81
2022-10-23T23:36:16.088Z,13.91
2022-10-23T23:39:18.066Z,13.81
2022-10-23T23:42:20.400Z,13.95
2022-10-23T23:45:22.363Z,14.17
2022-10-23T23:48:25.462Z,14.22
2022-10-23T23:51:27.439Z,14.23
2022-10-23T23:54:29.890Z,14.18
2022-10-23T23:57:32.073Z,14.14
